sensor_id;sensor_type;location;lat;lon;timestamp;temperature;humidity
31687;DHT22;18285;51.330;4.946;2024-03-02T00:21:19;29.20;33.30
31687;DHT22;18285;51.330;4.946;2024-03-02T00:45:32;29.40;32.20
31687;DHT22;18285;51.330;4.946;2024-03-02T01:09:43;29.30;31.80
31687;DHT22;18285;51.330;4.946;2024-03-02T01:33:55;29.30;31.10
31687;DHT22;18285;51.330;4.946;2024-03-02T08:27:21;23.40;36.80
31687;DHT22;18285;51.330;4.946;2024-03-02T08:51:32;25.60;33.30
31687;DHT22;18285;51.330;4.946;2024-03-02T09:15:43;25.60;32.60
31687;DHT22;18285;51.330;4.946;2024-03-02T09:39:54;25.50;32.70
31687;DHT22;18285;51.330;4.946;2024-03-02T10:04:05;25.50;32.20
31687;DHT22;18285;51.330;4.946;2024-03-02T10:28:16;25.40;32.10
31687;DHT22;18285;51.330;4.946;2024-03-02T10:52:26;25.40;31.60
31687;DHT22;18285;51.330;4.946;2024-03-02T11:16:38;25.40;31.20
31687;DHT22;18285;51.330;4.946;2024-03-02T11:40:51;25.20;31.50
31687;DHT22;18285;51.330;4.946;2024-03-02T12:05:03;25.20;31.00
31687;DHT22;18285;51.330;4.946;2024-03-02T12:29:14;25.20;32.20
31687;DHT22;18285;51.330;4.946;2024-03-02T12:53:25;24.90;29.30
31687;DHT22;18285;51.330;4.946;2024-03-02T13:17:36;24.50;29.80
31687;DHT22;18285;51.330;4.946;2024-03-02T13:41:47;24.40;31.30
31687;DHT22;18285;51.330;4.946;2024-03-02T14:06:03;24.60;31.60
31687;DHT22;18285;51.330;4.946;2024-03-02T14:30:14;24.70;31.90
31687;DHT22;18285;51.330;4.946;2024-03-02T14:54:24;24.70;32.10
31687;DHT22;18285;51.330;4.946;2024-03-02T15:18:35;24.60;32.20
31687;DHT22;18285;51.330;4.946;2024-03-02T15:42:46;24.70;32.60
31687;DHT22;18285;51.330;4.946;2024-03-02T16:06:57;24.60;32.60
31687;DHT22;18285;51.330;4.946;2024-03-02T16:31:07;24.60;32.50
31687;DHT22;18285;51.330;4.946;2024-03-02T16:55:22;24.20;30.70
31687;DHT22;18285;51.330;4.946;2024-03-02T17:19:33;23.80;31.10
31687;DHT22;18285;51.330;4.946;2024-03-02T17:43:44;23.50;33.00
31687;DHT22;18285;51.330;4.946;2024-03-02T18:07:54;23.90;34.80
31687;DHT22;18285;51.330;4.946;2024-03-02T18:32:06;24.10;34.90
31687;DHT22;18285;51.330;4.946;2024-03-02T18:56:17;24.20;35.90
31687;DHT22;18285;51.330;4.946;2024-03-02T19:20:30;24.30;35.70
31687;DHT22;18285;51.330;4.946;2024-03-02T19:44:41;24.30;36.90
31687;DHT22;18285;51.330;4.946;2024-03-02T20:08:53;23.90;33.90
31687;DHT22;18285;51.330;4.946;2024-03-02T20:33:04;23.80;35.80
31687;DHT22;18285;51.330;4.946;2024-03-02T20:57:14;23.80;35.70
31687;DHT22;18285;51.330;4.946;2024-03-02T21:21:25;24.20;36.00
31687;DHT22;18285;51.330;4.946;2024-03-02T21:45:36;24.80;35.60
31687;DHT22;18285;51.330;4.946;2024-03-02T22:09:46;25.70;34.90
31687;DHT22;18285;51.330;4.946;2024-03-02T22:33:57;26.50;35.90
31687;DHT22;18285;51.330;4.946;2024-03-02T22:58:08;27.10;36.30
31687;DHT22;18285;51.330;4.946;2024-03-02T23:22:18;27.70;39.00
31687;DHT22;18285;51.330;4.946;2024-03-02T23:46:32;28.20;36.80
